createdAt,value
2018-04-09T00:00:20.636Z,9.70
2018-04-09T00:05:44.066Z,8.87
2018-04-09T00:08:16.025Z,8.80
2018-04-09T00:10:49.572Z,9.80
2018-04-09T00:13:41.898Z,8.63
2018-04-09T00:19:14.418Z,8.97
2018-04-09T00:21:47.716Z,9.30
2018-04-09T00:24:20.472Z,9.00
2018-04-09T00:26:54.276Z,8.90
2018-04-09T00:29:31.562Z,8.93
2018-04-09T00:32:08.031Z,9.87
2018-04-09T00:34:43.074Z,8.83
2018-04-09T00:37:22.940Z,10.27
2018-04-09T00:39:54.492Z,9.63
2018-04-09T00:42:28.103Z,10.17
2018-04-09T00:44:59.658Z,9.17
2018-04-09T00:50:11.562Z,9.20
2018-04-09T00:52:46.207Z,8.37
2018-04-09T00:55:22.773Z,9.53
2018-04-09T00:57:56.751Z,10.43
2018-04-09T01:00:33.528Z,9.90
2018-04-09T01:05:49.866Z,9.57
2018-04-09T01:08:25.086Z,9.50
2018-04-09T01:10:56.352Z,9.27
2018-04-09T01:13:32.661Z,10.20
2018-04-09T01:16:17.005Z,9.77
2018-04-09T01:18:50.448Z,8.97
2018-04-09T01:21:24.139Z,8.47
2018-04-09T01:24:02.419Z,9.40
2018-04-09T01:26:38.521Z,9.90
2018-04-09T01:29:14.373Z,10.32
2018-04-09T01:34:33.950Z,9.20
2018-04-09T01:37:04.337Z,9.53
2018-04-09T01:42:19.204Z,10.33
2018-04-09T01:45:01.355Z,10.47
2018-04-09T01:47:36.788Z,10.00
2018-04-09T01:52:49.963Z,10.63
2018-04-09T01:55:20.311Z,9.47
2018-04-09T01:57:52.767Z,9.40
2018-04-09T02:00:24.547Z,10.20
2018-04-09T02:02:57.527Z,10.07
2018-04-09T02:05:31.524Z,10.60
2018-04-09T02:11:31.178Z,10.50
2018-04-09T02:14:05.544Z,10.10
2018-04-09T02:16:42.885Z,10.10
2018-04-09T02:19:13.930Z,10.40
2018-04-09T02:21:51.817Z,10.67
2018-04-09T02:27:09.185Z,11.37
2018-04-09T02:29:45.004Z,9.50
2018-04-09T02:32:20.062Z,9.10
2018-04-09T02:34:53.969Z,10.00
2018-04-09T02:37:33.103Z,10.10
2018-04-09T02:40:10.876Z,9.80
2018-04-09T02:45:21.789Z,10.70
2018-04-09T02:47:57.880Z,9.20
2018-04-09T02:53:24.753Z,8.90
2018-04-09T02:55:59.418Z,10.50
2018-04-09T03:01:28.297Z,10.70
2018-04-09T03:04:02.360Z,10.00
2018-04-09T03:06:34.962Z,10.77
2018-04-09T03:09:12.263Z,10.50
2018-04-09T03:11:44.347Z,9.50
2018-04-09T03:16:57.864Z,9.83
2018-04-09T03:22:14.879Z,9.80
2018-04-09T03:24:45.080Z,10.50
2018-04-09T03:27:21.146Z,10.43
2018-04-09T03:29:53.224Z,10.83
2018-04-09T03:32:25.924Z,10.67
2018-04-09T03:35:00.229Z,10.40
2018-04-09T03:37:34.112Z,11.00
2018-04-09T03:40:06.263Z,10.70
2018-04-09T03:42:37.665Z,10.13
2018-04-09T03:45:14.228Z,10.60
2018-04-09T03:47:47.017Z,10.63
2018-04-09T03:50:22.052Z,10.27
2018-04-09T03:52:58.560Z,10.53
2018-04-09T03:55:27.601Z,10.30
2018-04-09T03:57:56.195Z,10.70
2018-04-09T04:00:26.591Z,9.50
2018-04-09T04:02:59.843Z,10.10
2018-04-09T04:05:27.773Z,10.70
2018-04-09T04:08:07.810Z,10.00
2018-04-09T04:14:27.236Z,11.03
2018-04-09T04:20:00.108Z,9.90
2018-04-09T05:45:09.347Z,11.60
2018-04-09T05:47:47.248Z,10.50
2018-04-09T05:53:04.698Z,11.33
2018-04-09T05:58:27.638Z,12.37
2018-04-09T06:01:03.190Z,10.87
2018-04-09T06:03:39.984Z,11.20
2018-04-09T06:06:13.399Z,10.73
2018-04-09T06:08:54.044Z,12.37
2018-04-09T06:11:48.930Z,14.10
2018-04-09T06:14:22.099Z,37.53
2018-04-09T06:16:54.364Z,22.90
2018-04-09T06:19:31.798Z,13.60
2018-04-09T06:22:12.427Z,10.77
2018-04-09T06:24:57.827Z,11.33
2018-04-09T06:27:31.519Z,11.47
2018-04-09T06:30:14.773Z,11.90
2018-04-09T06:33:03.393Z,11.70
2018-04-09T06:35:52.039Z,11.70
2018-04-09T06:41:09.384Z,10.67
2018-04-09T06:43:54.068Z,12.73
2018-04-09T06:46:31.997Z,12.20
2018-04-09T06:49:10.767Z,12.47
2018-04-09T06:51:49.456Z,12.13
2018-04-09T06:54:28.976Z,11.30
2018-04-09T06:59:52.301Z,12.27
2018-04-09T07:02:29.500Z,12.87
2018-04-09T07:05:08.153Z,12.80
2018-04-09T07:07:49.092Z,12.17
2018-04-09T07:10:33.446Z,12.73
2018-04-09T07:13:15.855Z,12.90
2018-04-09T07:15:51.353Z,13.50
2018-04-09T07:18:30.145Z,14.43
2018-04-09T07:23:54.038Z,14.73
2018-04-09T07:26:27.345Z,13.20
2018-04-09T07:29:06.586Z,13.10
2018-04-09T07:37:10.697Z,13.87
2018-04-09T07:39:45.321Z,12.27
2018-04-09T07:42:30.733Z,14.50
2018-04-09T07:45:21.323Z,13.53
2018-04-09T07:47:54.800Z,13.80
2018-04-09T07:50:32.356Z,13.10
2018-04-09T07:53:09.582Z,14.17
2018-04-09T07:58:30.197Z,15.00
2018-04-09T08:01:08.836Z,15.00
2018-04-09T08:03:46.657Z,15.60
2018-04-09T08:06:19.362Z,15.10
2018-04-09T08:09:01.521Z,14.20
2018-04-09T08:11:36.562Z,15.17
2018-04-09T08:14:10.465Z,14.37
2018-04-09T08:19:29.226Z,15.97
2018-04-09T08:22:12.876Z,16.70
2018-04-09T08:25:08.728Z,15.47
2018-04-09T08:27:47.932Z,14.23
2018-04-09T08:33:00.098Z,14.67
2018-04-09T08:35:37.349Z,15.20
2018-04-09T08:38:18.904Z,12.80
2018-04-09T08:43:44.683Z,14.57
2018-04-09T08:46:21.365Z,14.90
2018-04-09T08:49:02.735Z,14.33
2018-04-09T08:51:37.862Z,13.57
2018-04-09T08:54:19.651Z,16.50
2018-04-09T08:56:59.171Z,15.40
2018-04-09T08:59:40.369Z,16.33
2018-04-09T09:02:31.504Z,14.60
2018-04-09T09:05:16.226Z,15.20
2018-04-09T09:13:47.537Z,15.23
2018-04-09T09:16:27.028Z,13.17
2018-04-09T09:19:02.025Z,15.43
2018-04-09T09:21:42.213Z,15.20
2018-04-09T09:24:15.813Z,15.30
2018-04-09T09:26:57.457Z,13.17
2018-04-09T09:29:32.514Z,15.37
2018-04-09T09:35:02.407Z,14.13
2018-04-09T09:40:18.687Z,13.97
2018-04-09T09:45:57.486Z,14.40
2018-04-09T09:51:20.642Z,14.90
2018-04-09T09:53:54.882Z,14.40
2018-04-09T10:41:30.450Z,12.53
2018-04-09T10:46:52.803Z,13.13
2018-04-09T10:49:35.280Z,12.53
2018-04-09T10:52:14.309Z,12.00
2018-04-09T10:54:48.418Z,11.70
2018-04-09T10:57:28.601Z,10.85
2018-04-09T11:00:00.030Z,12.40
2018-04-09T11:02:39.471Z,12.67
2018-04-09T11:05:24.028Z,14.63
2018-04-09T11:13:29.284Z,11.73
2018-04-09T11:19:02.414Z,11.60
2018-04-09T11:21:39.190Z,13.17
2018-04-09T11:24:21.876Z,13.53
2018-04-09T11:27:02.202Z,12.93
2018-04-09T11:29:34.618Z,14.30
2018-04-09T11:32:12.767Z,12.17
2018-04-09T11:34:50.610Z,11.97
2018-04-09T11:37:25.507Z,12.90
2018-04-09T11:39:58.901Z,12.37
2018-04-09T11:42:35.904Z,12.53
2018-04-09T11:45:20.639Z,29.03
2018-04-09T11:47:53.837Z,15.07
2018-04-09T11:50:33.158Z,12.93
2018-04-09T11:53:10.257Z,12.07
2018-04-09T11:55:42.810Z,11.73
2018-04-09T11:58:15.593Z,10.57
2018-04-09T12:00:55.183Z,12.47
2018-04-09T12:03:39.200Z,10.77
2018-04-09T12:09:07.920Z,12.20
2018-04-09T12:11:44.326Z,11.20
2018-04-09T12:14:18.408Z,11.37
2018-04-09T12:16:55.860Z,11.17
2018-04-09T12:19:31.226Z,12.20
2018-04-09T12:25:05.541Z,11.67
2018-04-09T12:27:43.964Z,11.00
2018-04-09T12:30:21.924Z,9.80
2018-04-09T12:33:02.324Z,10.27
2018-04-09T12:38:15.374Z,10.20
2018-04-09T12:40:53.504Z,9.87
2018-04-09T12:43:27.788Z,11.90
2018-04-09T12:46:06.737Z,10.13
2018-04-09T12:48:41.342Z,10.93
2018-04-09T12:51:17.808Z,11.70
2018-04-09T12:53:52.595Z,10.87
2018-04-09T12:56:29.333Z,12.57
2018-04-09T12:59:01.291Z,10.37
2018-04-09T13:01:29.743Z,10.57
2018-04-09T13:03:57.086Z,9.97
2018-04-09T13:06:24.422Z,9.00
2018-04-09T13:08:51.786Z,11.17
2018-04-09T13:11:19.128Z,10.80
2018-04-09T13:13:46.493Z,9.50
2018-04-09T13:16:13.833Z,8.83
2018-04-09T13:18:41.196Z,8.10
2018-04-09T13:21:08.551Z,8.10
2018-04-09T13:23:35.918Z,8.20
2018-04-09T13:28:55.732Z,6.50
2018-04-09T13:31:23.065Z,7.30
2018-04-09T13:33:50.422Z,8.07
2018-04-09T13:36:17.758Z,9.10
2018-04-09T13:38:45.132Z,9.10
2018-04-09T13:41:12.468Z,8.27
2018-04-09T13:43:39.834Z,8.60
2018-04-09T13:46:07.172Z,15.37
2018-04-09T13:48:34.548Z,21.40
2018-04-09T13:51:01.888Z,9.13
2018-04-09T13:53:29.278Z,7.30
2018-04-09T13:55:56.616Z,7.37
2018-04-09T13:58:23.971Z,8.27
2018-04-09T14:00:51.310Z,6.77
2018-04-09T14:03:18.680Z,7.30
2018-04-09T14:05:46.015Z,7.80
2018-04-09T14:08:13.371Z,7.40
2018-04-09T14:10:40.711Z,7.00
2018-04-09T14:13:08.077Z,8.40
2018-04-09T14:15:35.409Z,8.57
2018-04-09T14:18:02.764Z,6.90
2018-04-09T14:20:30.115Z,6.87
2018-04-09T14:22:57.487Z,7.50
2018-04-09T14:25:24.824Z,6.20
2018-04-09T14:27:52.190Z,6.90
2018-04-09T14:30:19.528Z,6.20
2018-04-09T14:32:46.889Z,6.47
2018-04-09T14:35:14.232Z,6.67
2018-04-09T14:37:41.594Z,7.87
2018-04-09T14:40:08.923Z,6.80
2018-04-09T14:42:36.286Z,6.03
2018-04-09T14:45:03.628Z,7.17
2018-04-09T14:47:30.987Z,6.37
2018-04-09T14:49:58.324Z,6.47
2018-04-09T14:52:25.680Z,6.13
2018-04-09T14:54:53.041Z,7.90
2018-04-09T14:57:20.385Z,6.07
2018-04-09T14:59:47.752Z,6.30
2018-04-09T15:02:15.085Z,6.50
2018-04-09T15:04:42.455Z,6.80
2018-04-09T15:07:09.790Z,7.70
2018-04-09T15:09:37.156Z,7.27
2018-04-09T15:12:04.499Z,7.90
2018-04-09T15:14:31.860Z,7.47
2018-04-09T15:16:59.192Z,7.70
2018-04-09T15:19:26.560Z,7.87
2018-04-09T15:21:53.921Z,6.97
2018-04-09T15:24:21.277Z,6.60
2018-04-09T15:26:48.619Z,6.10
2018-04-09T15:29:15.989Z,6.27
2018-04-09T15:31:43.328Z,6.70
2018-04-09T15:34:10.690Z,5.70
2018-04-09T15:36:38.025Z,6.90
2018-04-09T15:39:05.388Z,9.17
2018-04-09T15:41:32.730Z,9.30
2018-04-09T15:44:00.110Z,8.00
2018-04-09T15:46:27.444Z,8.10
2018-04-09T15:48:54.825Z,8.67
2018-04-09T15:51:22.171Z,7.80
2018-04-09T15:53:49.543Z,8.20
2018-04-09T15:56:16.879Z,7.70
2018-04-09T15:58:44.264Z,8.63
2018-04-09T16:01:11.623Z,8.60
2018-04-09T16:03:38.990Z,8.67
2018-04-09T16:06:06.348Z,7.30
2018-04-09T16:08:33.717Z,8.07
2018-04-09T16:11:01.097Z,8.47
2018-04-09T16:13:28.457Z,8.90
2018-04-09T16:15:55.791Z,7.90
2018-04-09T16:18:23.161Z,8.53
2018-04-09T16:20:50.497Z,7.97
2018-04-09T16:23:17.837Z,8.60
2018-04-09T16:25:45.197Z,8.20
2018-04-09T16:28:12.538Z,8.03
2018-04-09T16:30:39.893Z,8.20
2018-04-09T16:33:07.232Z,7.77
2018-04-09T16:35:34.591Z,7.80
2018-04-09T16:38:02.092Z,7.03
2018-04-09T16:40:29.453Z,7.60
2018-04-09T16:42:56.786Z,9.13
2018-04-09T16:45:24.152Z,9.90
2018-04-09T16:47:51.484Z,8.73
2018-04-09T16:50:18.878Z,8.17
2018-04-09T16:52:46.220Z,8.17
2018-04-09T16:55:13.598Z,9.23
2018-04-09T16:57:40.934Z,10.67
2018-04-09T17:00:08.299Z,9.87
2018-04-09T17:02:35.666Z,8.80
2018-04-09T17:05:03.044Z,8.43
2018-04-09T17:07:30.387Z,9.00
2018-04-09T17:09:57.745Z,8.43
2018-04-09T17:12:25.095Z,8.40
2018-04-09T17:14:52.461Z,7.80
2018-04-09T17:17:19.801Z,10.13
2018-04-09T17:19:47.188Z,8.93
2018-04-09T17:22:14.547Z,9.77
2018-04-09T17:24:41.908Z,8.60
2018-04-09T17:27:09.249Z,10.87
2018-04-09T17:29:36.611Z,10.60
2018-04-09T17:32:03.946Z,8.80
2018-04-09T17:34:31.317Z,11.23
2018-04-09T17:36:58.667Z,11.57
2018-04-09T17:39:26.039Z,10.83
2018-04-09T17:41:53.388Z,10.87
2018-04-09T17:44:20.752Z,10.53
2018-04-09T17:46:48.129Z,10.10
2018-04-09T17:49:15.458Z,9.70
2018-04-09T17:51:42.824Z,10.10
2018-04-09T17:54:10.168Z,8.40
2018-04-09T17:56:37.525Z,8.93
2018-04-09T17:59:04.868Z,9.43
2018-04-09T18:01:32.235Z,9.60
2018-04-09T18:03:59.568Z,9.23
2018-04-09T18:06:26.933Z,10.70
2018-04-09T18:08:54.278Z,11.57
2018-04-09T18:11:21.643Z,10.63
2018-04-09T18:13:48.984Z,10.17
2018-04-09T18:16:16.352Z,11.60
2018-04-09T18:18:43.696Z,10.97
2018-04-09T18:21:11.058Z,10.53
2018-04-09T18:23:38.402Z,9.87
2018-04-09T18:26:05.765Z,11.00
2018-04-09T18:28:33.095Z,8.90
2018-04-09T18:31:00.459Z,10.07
2018-04-09T18:33:27.797Z,9.43
2018-04-09T18:35:55.166Z,10.17
2018-04-09T18:38:22.506Z,10.50
2018-04-09T18:40:49.874Z,9.13
2018-04-09T18:43:17.207Z,9.53
2018-04-09T18:45:44.578Z,10.70
2018-04-09T18:48:11.922Z,9.23
2018-04-09T18:50:40.174Z,9.40
2018-04-09T18:53:07.509Z,8.87
2018-04-09T18:55:34.881Z,9.23
2018-04-09T18:58:02.216Z,9.17
2018-04-09T19:00:29.584Z,8.93
2018-04-09T19:02:56.925Z,9.13
2018-04-09T19:05:24.291Z,9.50
2018-04-09T19:07:51.636Z,9.20
2018-04-09T19:10:19.001Z,9.37
2018-04-09T19:12:46.344Z,9.57
2018-04-09T19:15:13.712Z,9.20
2018-04-09T19:17:41.049Z,10.43
2018-04-09T19:20:08.429Z,9.63
2018-04-09T19:22:35.773Z,7.97
2018-04-09T19:25:03.108Z,7.80
2018-04-09T19:27:30.470Z,6.90
2018-04-09T19:29:57.811Z,7.03
2018-04-09T19:32:25.273Z,6.87
2018-04-09T19:34:58.338Z,7.13
2018-04-09T19:37:31.316Z,7.97
2018-04-09T19:40:04.473Z,11.13
2018-04-09T19:42:31.840Z,10.30
2018-04-09T19:44:59.188Z,7.90
2018-04-09T19:47:26.552Z,8.60
2018-04-09T19:49:53.893Z,9.20
2018-04-09T19:52:21.270Z,10.30
2018-04-09T19:54:48.613Z,10.57
2018-04-09T19:57:15.975Z,11.93
2018-04-09T19:59:43.319Z,11.30
2018-04-09T20:02:10.693Z,10.43
2018-04-09T20:04:38.036Z,10.53
2018-04-09T20:07:05.405Z,12.67
2018-04-09T20:09:32.748Z,11.37
2018-04-09T20:12:00.117Z,10.63
2018-04-09T20:14:27.506Z,10.93
2018-04-09T20:16:54.841Z,11.87
2018-04-09T20:19:22.299Z,10.00
2018-04-09T20:21:49.672Z,11.17
2018-04-09T20:24:17.021Z,13.03
2018-04-09T20:26:44.390Z,15.40
2018-04-09T20:29:11.727Z,18.47
2018-04-09T20:31:39.096Z,13.87
2018-04-09T20:34:06.443Z,12.77
2018-04-09T20:36:33.816Z,15.60
2018-04-09T20:39:01.153Z,13.47
2018-04-09T20:41:28.554Z,15.30
2018-04-09T20:43:56.829Z,15.50
2018-04-09T20:46:24.170Z,15.60
2018-04-09T20:48:51.532Z,14.80
2018-04-09T20:51:18.880Z,14.47
2018-04-09T20:53:46.249Z,12.80
2018-04-09T20:56:13.596Z,11.80
2018-04-09T20:58:40.969Z,12.27
2018-04-09T21:01:08.312Z,10.23
2018-04-09T21:03:35.690Z,10.20
2018-04-09T21:06:03.029Z,9.27
2018-04-09T21:08:30.424Z,9.80
2018-04-09T21:10:57.750Z,8.23
2018-04-09T21:13:25.117Z,9.70
2018-04-09T21:15:52.449Z,9.87
2018-04-09T21:18:19.809Z,8.60
2018-04-09T21:20:47.155Z,8.97
2018-04-09T21:23:14.525Z,9.07
2018-04-09T21:25:41.900Z,9.77
2018-04-09T21:28:09.287Z,9.10
2018-04-09T21:30:36.700Z,9.10
2018-04-09T21:33:04.053Z,9.30
2018-04-09T21:35:31.403Z,9.80
2018-04-09T21:37:58.760Z,9.90
2018-04-09T21:40:26.120Z,9.40
2018-04-09T21:42:53.478Z,9.50
2018-04-09T21:45:20.813Z,9.10
2018-04-09T21:47:48.175Z,9.67
2018-04-09T21:50:15.517Z,9.60
2018-04-09T21:52:42.877Z,9.73
2018-04-09T21:55:10.214Z,9.00
2018-04-09T21:57:37.573Z,8.90
2018-04-09T22:00:04.916Z,8.50
2018-04-09T22:02:32.303Z,9.00
2018-04-09T22:04:59.885Z,8.73
2018-04-09T22:07:27.245Z,8.23
2018-04-09T22:09:54.596Z,8.10
2018-04-09T22:12:21.947Z,8.60
2018-04-09T22:14:49.285Z,8.80
2018-04-09T22:17:16.638Z,8.50
2018-04-09T22:19:43.996Z,8.63
2018-04-09T22:22:11.328Z,8.10
2018-04-09T22:24:38.689Z,8.10
2018-04-09T22:27:06.036Z,7.30
2018-04-09T22:29:33.397Z,7.67
2018-04-09T22:32:00.732Z,8.90
2018-04-09T22:34:28.093Z,7.90
2018-04-09T22:36:55.427Z,8.97
2018-04-09T22:39:22.789Z,7.10
2018-04-09T22:41:50.129Z,7.67
2018-04-09T22:44:17.489Z,9.20
2018-04-09T22:46:44.822Z,7.80
2018-04-09T22:49:12.178Z,9.40
2018-04-09T22:51:39.509Z,8.40
2018-04-09T22:54:06.924Z,8.70
2018-04-09T22:56:34.261Z,9.73
2018-04-09T22:59:01.616Z,7.50
2018-04-09T23:01:28.964Z,8.47
2018-04-09T23:03:56.332Z,7.97
2018-04-09T23:06:23.668Z,8.80
2018-04-09T23:08:51.023Z,9.13
2018-04-09T23:11:18.366Z,7.93
2018-04-09T23:13:45.723Z,8.10
2018-04-09T23:16:13.055Z,8.00
2018-04-09T23:18:40.429Z,8.83
2018-04-09T23:21:07.765Z,9.67
2018-04-09T23:23:35.133Z,8.27
2018-04-09T23:26:02.951Z,9.23
2018-04-09T23:28:30.317Z,8.50
2018-04-09T23:30:57.649Z,9.43
2018-04-09T23:33:25.024Z,9.60
2018-04-09T23:35:52.363Z,7.90
2018-04-09T23:38:19.724Z,9.10
2018-04-09T23:40:47.052Z,8.00
2018-04-09T23:43:14.415Z,7.90
2018-04-09T23:45:41.748Z,9.07
2018-04-09T23:48:09.085Z,8.23
2018-04-09T23:50:36.468Z,8.47
2018-04-09T23:53:03.805Z,8.30
2018-04-09T23:55:31.163Z,8.17
2018-04-09T23:57:58.503Z,8.60
